LA6JKA Spydeberg NO current weather conditions

sailwx.info

Wind from 011 at 9 knots gusting 17

Air temperature 6.7° C
Dewpoint 5.9° C

Last reported at 2020-Sep-26 04:46 UTC.
Time now 2020-Sep-26 06:06 UTC

Location: N 59°37' E 011°06'.
View on Google Maps.

See reports from other nearby stations

  
Tides and Currents Weather Stations Pressure Air Temp Water Temp Dewpoint Dewpoint Depression Visibility Wind Speed Wind Dir Waves Ship Positions
date/time (UTC)wind fromknots sea level pressurealtimeterstation pressurevisibilityair tempwater tempwave heightnotes
2020-Sep-26 04:46 011 9 gusting 17 6.7
2020-Sep-26 04:31 355 6 gusting 19 6.7
2020-Sep-26 04:16 015 6 gusting 15 6.7
2020-Sep-26 04:01 032 6 gusting 18 6.7
2020-Sep-26 03:46 036 10 gusting 18 6.7
2020-Sep-26 03:31 355 9 gusting 17 6.7
2020-Sep-26 03:16 035 4 gusting 14 6.7
2020-Sep-26 03:01 011 6 gusting 14 6.7
2020-Sep-26 02:46 040 6 gusting 15 6.7
2020-Sep-26 02:31 355 8 gusting 17 6.7
2020-Sep-26 02:16 057 9 gusting 24 6.7
2020-Sep-26 02:00 016 7 gusting 19 6.7
2020-Sep-26 01:46 057 10 gusting 22 6.7
2020-Sep-26 01:30 021 11 gusting 23 6.7
2020-Sep-26 01:16 005 10 gusting 23 7.2
2020-Sep-26 01:00 015 14 gusting 26 7.2
2020-Sep-26 00:45 044 12 gusting 25 7.2
2020-Sep-26 00:30 024 10 gusting 22 7.2
2020-Sep-26 00:15 044 14 gusting 23 7.8
2020-Sep-26 00:01 011 9 gusting 22 7.8
2020-Sep-25 23:45 010 8 gusting 17 7.8
2020-Sep-25 23:30 059 11 gusting 17 7.8
2020-Sep-25 23:15 051 11 gusting 20 8.3
2020-Sep-25 23:00 021 10 gusting 17 8.3
2020-Sep-25 22:45 030 7 gusting 13 8.3
2020-Sep-25 22:30 021 7 gusting 16 8.3
2020-Sep-25 22:15 009 11 gusting 19 8.9
2020-Sep-25 22:02 016 7 gusting 14 8.9
2020-Sep-25 21:46 024 6 gusting 11 9.4
2020-Sep-25 21:45 024 6 gusting 11 9.4
2020-Sep-25 21:31 005 6 gusting 13 9.4
2020-Sep-25 21:16 039 8 gusting 14 10.0
2020-Sep-25 21:02 024 7 gusting 14 10.6
2020-Sep-25 20:46 016 5 gusting 9 11.1
2020-Sep-25 20:31 009 5 gusting 13 11.1
2020-Sep-25 20:17 076 6 gusting 12 11.1
2020-Sep-25 20:01 018 5 gusting 10 11.1
2020-Sep-25 19:46 034 2 gusting 9 11.1
2020-Sep-25 19:31 034 5 gusting 9 11.1
2020-Sep-25 19:16 005 6 gusting 10 11.7
2020-Sep-25 19:02 018 5 gusting 10 11.7
2020-Sep-25 18:46 025 4 gusting 10 11.1
2020-Sep-25 18:31 038 4 gusting 8 11.1
2020-Sep-25 18:16 035 5 gusting 10 11.1
2020-Sep-25 18:01 028 4 gusting 12 11.1
2020-Sep-25 17:46 061 2 gusting 8 11.1
2020-Sep-25 17:16 043 5 gusting 10 11.1
2020-Sep-25 17:01 038 4 gusting 8 11.1
2020-Sep-25 16:46 034 2 gusting 4 11.1
2020-Sep-25 16:31 077 2 gusting 9 11.1
2020-Sep-25 16:16 064 3 gusting 8 11.7
2020-Sep-25 16:01 053 2 gusting 10 11.7
2020-Sep-25 15:46 017 0 gusting 4 12.2
2020-Sep-25 15:31 064 1 gusting 9 12.8
2020-Sep-25 15:16 072 2 gusting 9 12.8
2020-Sep-25 15:02 043 2 gusting 6 12.8
2020-Sep-25 14:46 093 4 gusting 8 12.8
2020-Sep-25 14:31 043 3 gusting 10 12.8
2020-Sep-25 14:16 037 2 gusting 7 12.8
2020-Sep-25 14:01 078 1 gusting 9 12.8
2020-Sep-25 13:46 022 3 gusting 9 12.2
2020-Sep-25 13:31 039 1 gusting 6 12.2
2020-Sep-25 13:16 039 2 gusting 10 12.2
2020-Sep-25 13:01 040 1 gusting 8 12.2
2020-Sep-25 12:45 051 0 gusting 6 12.2
2020-Sep-25 12:31 038 1 gusting 8 12.2
2020-Sep-25 12:15 036 3 gusting 7 12.8
2020-Sep-25 12:00 031 1 gusting 5 12.8
2020-Sep-25 11:46 011 4 gusting 8 12.8
2020-Sep-25 11:30 351 0 gusting 6 12.8
2020-Sep-25 11:15 009 2 gusting 7 13.3
2020-Sep-25 11:01 039 2 gusting 8 13.9
2020-Sep-25 10:46 027 1 gusting 5 13.9
2020-Sep-25 10:30 050 1 gusting 6 13.9
2020-Sep-25 10:15 059 2 gusting 6 13.9
2020-Sep-25 10:00 071 2 gusting 5 13.3
2020-Sep-25 09:45 080 0 gusting 4 13.3
2020-Sep-25 09:30 057 1 gusting 3 12.8
2020-Sep-25 09:15 057 0 gusting 2 12.8
2020-Sep-25 09:00 005 11.7
2020-Sep-25 08:46 005 11.7
2020-Sep-25 08:34 005 11.1
2020-Sep-25 08:16 005 10.6
2020-Sep-25 08:01 005 10.0
2020-Sep-25 07:46 005 8.9
2020-Sep-25 07:32 343 8.3
2020-Sep-25 07:16 343 7.8
2020-Sep-25 07:01 315 7.8
2020-Sep-25 06:46 314 7.8
2020-Sep-25 06:30 314 7.8
2020-Sep-25 06:16 314 7.2
2020-Sep-25 06:01 314 7.2
2020-Sep-25 05:46 313 7.2
2020-Sep-25 05:31 313 7.8
2020-Sep-25 05:17 179 7.8
2020-Sep-25 05:01 180 8.3
2020-Sep-25 04:46 180 8.3
2020-Sep-25 04:31 179 8.3
2020-Sep-25 04:16 180 8.9
2020-Sep-25 04:01 180 8.9
2020-Sep-25 03:47 179 8.9
2020-Sep-25 03:31 176 0 gusting 3 8.9
2020-Sep-25 03:16 178 9.4
2020-Sep-25 03:01 184 0 gusting 4 9.4
2020-Sep-25 02:46 186 9.4
2020-Sep-25 02:30 176 9.4
2020-Sep-25 02:15 177 9.4
2020-Sep-25 02:00 182 9.4
2020-Sep-25 01:46 153 9.4
2020-Sep-25 01:31 136 8.9
2020-Sep-25 01:15 165 8.9
2020-Sep-25 01:00 167 8.3
2020-Sep-25 00:46 168 8.3
2020-Sep-25 00:30 167 8.3
2020-Sep-25 00:15 165 8.3
2020-Sep-25 00:01 157 8.9
2020-Sep-24 23:45 158 8.9
2020-Sep-24 23:30 146 9.4
2020-Sep-24 23:15 204 9.4
2020-Sep-24 23:00 203 10.0
2020-Sep-24 22:46 196 1 gusting 6 10.0
2020-Sep-24 22:31 220 0 gusting 7 10.0
2020-Sep-24 22:16 148 1 gusting 8 10.6
2020-Sep-24 22:01 223 2 gusting 11 10.6
2020-Sep-24 21:46 199 5 gusting 12 10.6
2020-Sep-24 21:31 204 4 gusting 11 11.1
2020-Sep-24 21:16 188 6 gusting 11 11.1
2020-Sep-24 21:01 190 4 gusting 9 11.1
2020-Sep-24 20:49 224 3 gusting 7 11.1
2020-Sep-24 20:31 197 5 gusting 10 11.1
2020-Sep-24 20:17 200 4 gusting 8 11.1
2020-Sep-24 20:02 229 4 gusting 8 11.1
2020-Sep-24 19:46 130 5 gusting 14 11.1
2020-Sep-24 19:31 196 4 gusting 13 11.1
2020-Sep-24 19:16 200 2 gusting 10 11.1
2020-Sep-24 19:01 215 5 gusting 17 12.2
2020-Sep-24 18:46 201 10 gusting 19 12.2
2020-Sep-24 18:31 147 8 gusting 20 11.7
2020-Sep-24 18:15 190 10 gusting 19 12.2
2020-Sep-24 18:01 209 8 gusting 22 12.2
2020-Sep-24 17:45 175 10 gusting 25 12.2
2020-Sep-24 17:30 223 10 gusting 20 12.2
2020-Sep-24 17:15 190 9 gusting 21 12.2
2020-Sep-24 17:00 155 9 gusting 19 12.2
2020-Sep-24 16:45 186 7 gusting 17 12.8
2020-Sep-24 16:30 184 10 gusting 21 12.8
2020-Sep-24 16:15 189 12 gusting 24 13.3
2020-Sep-24 16:00 196 9 gusting 21 13.3
2020-Sep-24 15:45 202 13 gusting 24 13.9
2020-Sep-24 15:30 161 10 gusting 28 13.9
2020-Sep-24 15:17 159 8 gusting 19 13.9
2020-Sep-24 14:46 144 13 gusting 21 13.9
2020-Sep-24 14:33 194 12 gusting 24 13.9
2020-Sep-24 14:17 227 13 gusting 26 13.9
2020-Sep-24 14:02 221 10 gusting 19 13.9
2020-Sep-24 13:47 154 13 gusting 26 13.9
2020-Sep-24 13:31 199 7 gusting 26 14.4
2020-Sep-24 13:16 179 12 gusting 30 14.4
2020-Sep-24 13:01 201 11 gusting 28 15.0
2020-Sep-24 12:46 190 11 gusting 20 15.0
2020-Sep-24 12:33 215 7 gusting 26 15.0
2020-Sep-24 12:16 195 8 gusting 21 14.4
2020-Sep-24 12:01 193 10 gusting 26 14.4
2020-Sep-24 11:47 238 11 gusting 22 15.0
2020-Sep-24 11:31 228 9 gusting 20 14.4
2020-Sep-24 11:15 194 9 gusting 21 14.4
2020-Sep-24 10:31 164 9 gusting 24 14.4
2020-Sep-24 10:15 162 7 gusting 16 13.9
2020-Sep-24 10:00 226 5 gusting 13 13.9
2020-Sep-24 09:46 128 7 gusting 24 13.9
2020-Sep-24 09:30 171 9 gusting 18 13.9
2020-Sep-24 09:15 168 6 gusting 16 13.9
2020-Sep-24 09:01 122 5 gusting 10 13.9
2020-Sep-24 08:45 138 3 gusting 11 13.9
2020-Sep-24 08:30 102 2 gusting 10 13.9
2020-Sep-24 08:15 134 4 gusting 10 14.4
2020-Sep-24 08:00 147 6 gusting 10 14.4
2020-Sep-24 07:45 142 4 gusting 11 13.9
2020-Sep-24 07:30 161 4 gusting 11 13.9
2020-Sep-24 07:15 140 2 gusting 10 13.9
2020-Sep-24 07:00 121 4 gusting 10 13.9
2020-Sep-24 06:32 127 4 gusting 8 13.9
2020-Sep-24 06:15 112 3 gusting 8 13.9
2020-Sep-24 06:00 134 4 gusting 8 13.9